Terminal Aerodrome Forecast
Issued by NWS

Home | Current Version | Previous Version | Text Only | Print | Product List | Glossary On
Versions: 1 2 3 4 5 6 7 8 9 10 11 12 13 14
000
FTUS42 KTBW 272342
TAFRSW
TAF
KRSW 272342Z 2800/2824 05006KT P6SM FEW035 BKN200
     FM280300 VRB04KT P6SM FEW035 SCT080 OVC200
     FM281000 08004KT P6SM VCSH SCT010 BKN030 OVC080
     FM281400 14008KT P6SM VCTS SCT010CB BKN030 OVC080
     FM281800 20010KT P6SM VCTS SCT010CB BKN035 OVC080=

USA.gov is the U.S. government's official web portal to all federal, state and local government web resources and services.